Time;durP1;ratioP1;P1;durP2;ratioP2;P2;SDS_P1;SDS_P2;PMS_P1;PMS_P2;Temp;Humidity;BMP_temperature;BMP_pressure;BME280_temperature;BME280_humidity;BME280_pressure;Samples;Min_cycle;Max_cycle;Signal;HPM_P1;HPM_P2
2023/05/01 00:00:34;;;;;;;13.47;4.73;;;;;;;;;;5014150;28;20551;-67
2023/05/01 00:03:00;;;;;;;7.47;4.93;;;;;;;;;;4996574;28;20646;-67
2023/05/01 00:05:27;;;;;;;5.70;4.33;;;;;;;;;;5014689;28;20677;-67
2023/05/01 00:07:53;;;;;;;8.03;4.80;;;;;;;;;;5014186;28;20238;-67
2023/05/01 00:10:19;;;;;;;10.50;4.73;;;;;;;;;;5014776;28;20657;-69
2023/05/01 00:12:45;;;;;;;8.73;4.80;;;;;;;;;;5014465;28;20171;-66
2023/05/01 00:15:11;;;;;;;7.43;4.70;;;;;;;;;;5014257;28;20207;-66
2023/05/01 00:17:37;;;;;;;5.90;4.23;;;;;;;;;;5014069;28;20224;-68
2023/05/01 00:20:04;;;;;;;6.83;4.60;;;;;;;;;;4996550;28;20222;-66
2023/05/01 00:22:30;;;;;;;8.73;4.90;;;;;;;;;;4996294;28;20183;-66
2023/05/01 00:24:56;;;;;;;8.03;4.70;;;;;;;;;;5014008;28;20207;-66
2023/05/01 00:27:22;;;;;;;10.67;5.23;;;;;;;;;;5014090;28;20230;-66
2023/05/01 00:29:48;;;;;;;7.60;4.90;;;;;;;;;;5013940;28;20263;-66
2023/05/01 00:32:14;;;;;;;11.30;5.37;;;;;;;;;;5013970;28;20219;-66
2023/05/01 00:34:40;;;;;;;7.97;4.70;;;;;;;;;;5015279;28;20179;-69
2023/05/01 00:37:06;;;;;;;9.33;5.13;;;;;;;;;;4996125;28;20285;-66
2023/05/01 00:39:32;;;;;;;12.13;5.07;;;;;;;;;;5013773;28;20176;-68
2023/05/01 00:41:58;;;;;;;10.33;5.47;;;;;;;;;;4996109;28;20175;-68
2023/05/01 00:44:24;;;;;;;7.93;5.13;;;;;;;;;;5013808;28;20176;-68
2023/05/01 00:46:50;;;;;;;9.40;5.23;;;;;;;;;;5013574;28;20620;-66
2023/05/01 00:49:16;;;;;;;6.13;4.80;;;;;;;;;;5014715;28;20548;-68
2023/05/01 00:51:43;;;;;;;8.40;4.90;;;;;;;;;;4997087;28;20179;-68
2023/05/01 00:54:09;;;;;;;9.23;4.77;;;;;;;;;;4996387;28;20274;-69
2023/05/01 00:56:36;;;;;;;7.73;5.57;;;;;;;;;;5013950;28;20218;-68
2023/05/01 00:59:02;;;;;;;9.07;5.30;;;;;;;;;;4996742;28;20543;-68
2023/05/01 01:01:29;;;;;;;7.03;5.07;;;;;;;;;;5014562;28;20259;-67
2023/05/01 01:03:55;;;;;;;9.57;5.70;;;;;;;;;;5013947;28;20177;-68
2023/05/01 01:06:32;;;;;;;13.00;5.07;;;;;;;;;;5013698;28;20179;-68
2023/05/01 01:09:17;;;;;;;9.27;5.60;;;;;;;;;;4995601;28;20179;-68
2023/05/01 01:11:52;;;;;;;8.13;5.30;;;;;;;;;;5013545;28;20164;-68
2023/05/01 01:14:26;;;;;;;7.93;5.07;;;;;;;;;;5013690;28;20174;-68
2023/05/01 01:16:56;;;;;;;8.83;5.20;;;;;;;;;;4995274;28;20222;-68
2023/05/01 01:19:36;;;;;;;9.90;5.70;;;;;;;;;;5013152;28;20306;-68
2023/05/01 01:22:07;;;;;;;10.80;5.53;;;;;;;;;;5013840;28;20172;-68
2023/05/01 01:24:52;;;;;;;11.97;6.00;;;;;;;;;;5016645;28;20545;-68
2023/05/01 01:27:19;;;;;;;9.27;5.40;;;;;;;;;;5016380;28;20222;-67
2023/05/01 01:29:58;;;;;;;10.03;5.33;;;;;;;;;;5016820;28;20214;-67
2023/05/01 01:32:38;;;;;;;9.30;5.57;;;;;;;;;;4999040;28;20557;-67
2023/05/01 01:35:09;;;;;;;9.27;6.03;;;;;;;;;;5016909;28;20682;-67
2023/05/01 01:37:49;;;;;;;8.83;5.30;;;;;;;;;;5017372;28;20564;-69
2023/05/01 01:40:18;;;;;;;9.73;5.97;;;;;;;;;;5016951;28;20179;-69
2023/05/01 01:42:50;;;;;;;9.83;5.43;;;;;;;;;;5016634;28;20176;-68
2023/05/01 01:45:18;;;;;;;8.37;5.80;;;;;;;;;;4998996;28;20242;-68
2023/05/01 01:47:45;;;;;;;8.37;5.53;;;;;;;;;;5016556;28;20203;-68
2023/05/01 01:50:12;;;;;;;10.30;5.83;;;;;;;;;;5016399;28;20180;-68
2023/05/01 01:52:40;;;;;;;8.80;5.37;;;;;;;;;;5016729;28;20188;-68
2023/05/01 01:55:10;;;;;;;8.07;5.43;;;;;;;;;;5016377;28;20204;-68
2023/05/01 01:57:38;;;;;;;9.27;6.13;;;;;;;;;;4998329;28;20637;-69
2023/05/01 02:00:07;;;;;;;8.33;5.63;;;;;;;;;;5015999;28;20201;-68
2023/05/01 02:02:36;;;;;;;9.40;5.77;;;;;;;;;;5015921;28;20560;-68
2023/05/01 02:05:03;;;;;;;9.50;5.53;;;;;;;;;;5015745;28;20172;-68
2023/05/01 02:07:30;;;;;;;9.93;5.70;;;;;;;;;;4997875;28;20212;-68
2023/05/01 02:09:56;;;;;;;8.57;6.00;;;;;;;;;;5015643;28;20179;-68
2023/05/01 02:12:23;;;;;;;8.27;5.07;;;;;;;;;;5015602;28;20259;-69
2023/05/01 02:14:51;;;;;;;10.27;5.80;;;;;;;;;;4998086;28;20556;-68
2023/05/01 02:17:18;;;;;;;11.67;6.00;;;;;;;;;;5015710;28;20196;-68
2023/05/01 02:19:45;;;;;;;8.30;5.40;;;;;;;;;;5015434;28;20172;-68
2023/05/01 02:22:11;;;;;;;14.13;6.00;;;;;;;;;;5015786;28;20235;-68
2023/05/01 02:24:38;;;;;;;8.20;5.70;;;;;;;;;;5015356;28;20550;-67
2023/05/01 02:27:11;;;;;;;7.70;6.20;;;;;;;;;;5015056;28;20719;-67
2023/05/01 02:29:37;;;;;;;9.33;5.97;;;;;;;;;;5015388;28;20175;-69
2023/05/01 02:32:03;;;;;;;8.27;5.77;;;;;;;;;;5015085;28;20184;-67
2023/05/01 02:34:28;;;;;;;8.43;5.27;;;;;;;;;;5014166;28;20256;-67
2023/05/01 02:36:54;;;;;;;9.90;5.97;;;;;;;;;;4997357;28;20212;-67
2023/05/01 02:39:21;;;;;;;6.80;4.87;;;;;;;;;;5014939;28;20180;-69
2023/05/01 02:41:48;;;;;;;8.13;5.37;;;;;;;;;;4997351;28;20681;-67
2023/05/01 02:44:15;;;;;;;8.10;5.90;;;;;;;;;;5015063;28;20273;-67
2023/05/01 02:46:43;;;;;;;8.33;5.57;;;;;;;;;;5015488;28;20286;-67
2023/05/01 02:49:09;;;;;;;11.67;5.90;;;;;;;;;;5015155;28;20176;-67
2023/05/01 02:51:37;;;;;;;7.33;5.73;;;;;;;;;;5014613;28;20183;-67
2023/05/01 02:54:03;;;;;;;12.60;6.30;;;;;;;;;;5014964;28;20621;-69
2023/05/01 02:56:29;;;;;;;8.43;6.50;;;;;;;;;;5014418;28;20213;-67
2023/05/01 02:58:55;;;;;;;10.00;6.47;;;;;;;;;;5014599;28;20182;-67
2023/05/01 03:01:21;;;;;;;8.60;6.60;;;;;;;;;;5014977;28;20693;-67
2023/05/01 03:03:48;;;;;;;9.63;6.30;;;;;;;;;;5014782;28;20255;-66
2023/05/01 03:06:14;;;;;;;10.03;6.27;;;;;;;;;;4997144;28;20275;-66
2023/05/01 03:08:40;;;;;;;10.83;5.83;;;;;;;;;;5014621;28;20214;-67
2023/05/01 03:11:07;;;;;;;13.47;6.60;;;;;;;;;;5014871;28;20184;-67
2023/05/01 03:13:33;;;;;;;11.50;6.00;;;;;;;;;;5014523;28;20195;-69
2023/05/01 03:15:59;;;;;;;11.80;6.50;;;;;;;;;;5015063;28;20207;-67
2023/05/01 03:18:25;;;;;;;14.33;6.70;;;;;;;;;;4996903;28;20540;-67
2023/05/01 03:20:58;;;;;;;10.47;6.80;;;;;;;;;;5014780;28;20202;-67
2023/05/01 03:23:24;;;;;;;12.10;6.50;;;;;;;;;;5014973;28;20168;-69
2023/05/01 03:25:50;;;;;;;12.90;8.10;;;;;;;;;;5014579;28;20233;-67
2023/05/01 03:28:16;;;;;;;10.77;7.10;;;;;;;;;;5014303;28;20650;-67
2023/05/01 03:30:42;;;;;;;9.00;6.40;;;;;;;;;;4996734;28;20184;-67
2023/05/01 03:33:08;;;;;;;11.97;6.50;;;;;;;;;;5014804;28;20669;-65
2023/05/01 03:35:34;;;;;;;10.57;5.90;;;;;;;;;;5014404;28;20558;-67
2023/05/01 03:38:00;;;;;;;10.23;7.60;;;;;;;;;;5014132;28;20196;-67
2023/05/01 03:40:26;;;;;;;11.53;7.73;;;;;;;;;;5014066;28;20183;-67
2023/05/01 03:42:52;;;;;;;13.40;6.67;;;;;;;;;;5014128;28;20701;-69
2023/05/01 03:45:18;;;;;;;9.83;6.83;;;;;;;;;;5013721;28;20187;-69
2023/05/01 03:47:44;;;;;;;14.70;6.67;;;;;;;;;;4996181;28;20241;-68
2023/05/01 03:50:10;;;;;;;11.13;6.60;;;;;;;;;;5014334;28;20183;-67
2023/05/01 03:52:36;;;;;;;10.40;6.30;;;;;;;;;;4996314;28;20190;-67
2023/05/01 03:55:02;;;;;;;11.10;6.30;;;;;;;;;;4996056;28;20667;-67
2023/05/01 03:57:28;;;;;;;9.23;5.87;;;;;;;;;;5013683;28;20195;-68
2023/05/01 03:59:54;;;;;;;8.53;6.57;;;;;;;;;;5013939;28;20236;-67
2023/05/01 04:02:20;;;;;;;11.23;6.70;;;;;;;;;;5013906;28;20214;-67
2023/05/01 04:04:46;;;;;;;10.37;6.90;;;;;;;;;;4996041;28;20206;-67
2023/05/01 04:07:13;;;;;;;7.93;5.90;;;;;;;;;;5013525;28;20197;-67
2023/05/01 04:09:39;;;;;;;6.93;6.13;;;;;;;;;;5013758;28;20180;-67
2023/05/01 04:12:05;;;;;;;10.00;6.47;;;;;;;;;;5013808;28;20179;-67
2023/05/01 04:14:31;;;;;;;12.03;6.80;;;;;;;;;;5013766;28;20592;-69
2023/05/01 04:16:57;;;;;;;8.87;6.23;;;;;;;;;;5014551;28;20207;-68
2023/05/01 04:19:23;;;;;;;9.60;6.60;;;;;;;;;;5013663;28;20207;-68
2023/05/01 04:21:49;;;;;;;11.30;6.80;;;;;;;;;;4995815;28;20584;-69
2023/05/01 04:24:15;;;;;;;13.60;6.73;;;;;;;;;;5013906;28;20176;-69
2023/05/01 04:26:42;;;;;;;13.83;7.03;;;;;;;;;;5013175;28;20701;-68
2023/05/01 04:29:08;;;;;;;10.17;7.00;;;;;;;;;;5013383;28;20176;-68
2023/05/01 04:31:34;;;;;;;10.07;6.73;;;;;;;;;;5013581;28;20187;-68
2023/05/01 04:34:00;;;;;;;10.03;6.40;;;;;;;;;;5013395;28;20199;-68
2023/05/01 04:36:28;;;;;;;9.37;6.60;;;;;;;;;;5013175;28;20683;-68
2023/05/01 04:38:54;;;;;;;9.63;6.37;;;;;;;;;;5013272;28;20179;-68
2023/05/01 04:41:20;;;;;;;12.07;6.47;;;;;;;;;;4995827;28;20184;-68
2023/05/01 04:43:46;;;;;;;9.17;6.70;;;;;;;;;;5013206;28;20172;-68
2023/05/01 04:46:12;;;;;;;11.17;6.60;;;;;;;;;;5013147;28;20190;-69
2023/05/01 04:48:38;;;;;;;9.00;6.10;;;;;;;;;;5013466;28;20553;-68
2023/05/01 04:51:04;;;;;;;12.57;6.60;;;;;;;;;;5013343;28;20206;-68
2023/05/01 04:53:30;;;;;;;12.67;6.63;;;;;;;;;;5013083;28;20180;-68
2023/05/01 04:55:56;;;;;;;10.83;6.57;;;;;;;;;;4995436;28;20208;-68
2023/05/01 04:58:23;;;;;;;10.13;6.13;;;;;;;;;;5015408;28;20202;-68
2023/05/01 05:00:49;;;;;;;9.80;6.50;;;;;;;;;;5016992;28;20172;-68
2023/05/01 05:03:17;;;;;;;10.80;6.03;;;;;;;;;;5016971;28;20206;-71
2023/05/01 05:05:44;;;;;;;8.83;6.37;;;;;;;;;;5016880;28;20191;-69
2023/05/01 05:08:10;;;;;;;8.90;5.77;;;;;;;;;;5016874;28;20242;-68
2023/05/01 05:10:36;;;;;;;8.90;6.40;;;;;;;;;;5016764;28;20241;-68
2023/05/01 05:13:02;;;;;;;9.80;6.37;;;;;;;;;;5017062;28;20231;-69
2023/05/01 05:15:28;;;;;;;9.07;6.43;;;;;;;;;;5016488;28;20215;-68
2023/05/01 05:17:54;;;;;;;7.97;6.43;;;;;;;;;;5016635;28;20689;-66
2023/05/01 05:20:20;;;;;;;9.07;6.30;;;;;;;;;;4999133;28;20175;-68
2023/05/01 05:22:46;;;;;;;10.53;6.33;;;;;;;;;;5016700;28;20187;-68
2023/05/01 05:25:12;;;;;;;7.00;5.83;;;;;;;;;;4999117;28;20187;-68
2023/05/01 05:27:38;;;;;;;11.20;6.77;;;;;;;;;;4998849;28;20628;-68
2023/05/01 05:30:07;;;;;;;9.60;6.40;;;;;;;;;;4998795;28;20661;-66
2023/05/01 05:32:33;;;;;;;10.83;6.13;;;;;;;;;;5016504;28;20206;-66
2023/05/01 05:34:59;;;;;;;8.20;5.67;;;;;;;;;;4998866;28;20210;-66
2023/05/01 05:37:25;;;;;;;12.17;6.37;;;;;;;;;;4999209;28;20195;-66
2023/05/01 05:39:52;;;;;;;12.80;7.03;;;;;;;;;;5016229;28;20175;-66
2023/05/01 05:42:17;;;;;;;11.67;5.57;;;;;;;;;;5016269;28;20557;-66
2023/05/01 05:44:43;;;;;;;12.20;5.83;;;;;;;;;;5016170;28;20180;-66
2023/05/01 05:47:09;;;;;;;10.77;5.77;;;;;;;;;;5016237;28;20203;-66
2023/05/01 05:49:35;;;;;;;10.97;5.10;;;;;;;;;;5016263;28;20190;-66
2023/05/01 05:52:01;;;;;;;8.57;5.17;;;;;;;;;;5015908;28;20191;-67
2023/05/01 05:54:27;;;;;;;7.70;3.57;;;;;;;;;;5015865;28;20251;-66
2023/05/01 05:56:53;;;;;;;4.70;3.80;;;;;;;;;;5015755;28;20239;-66
2023/05/01 05:59:19;;;;;;;5.80;3.70;;;;;;;;;;5015848;28;20604;-66
2023/05/01 06:01:46;;;;;;;3.90;3.10;;;;;;;;;;5016228;28;20608;-66
2023/05/01 06:04:13;;;;;;;5.07;3.23;;;;;;;;;;5015860;28;20198;-66
2023/05/01 06:06:39;;;;;;;6.90;3.40;;;;;;;;;;5016176;28;20265;-66
2023/05/01 06:09:07;;;;;;;6.17;3.47;;;;;;;;;;5015513;28;20179;-66
2023/05/01 06:11:33;;;;;;;4.70;3.53;;;;;;;;;;5015798;28;20898;-66
2023/05/01 06:14:01;;;;;;;4.93;3.23;;;;;;;;;;5015884;28;20180;-66
2023/05/01 06:16:27;;;;;;;4.10;3.13;;;;;;;;;;5015785;28;20210;-65
2023/05/01 06:18:53;;;;;;;5.77;3.20;;;;;;;;;;5016351;28;20259;-67
2023/05/01 06:21:19;;;;;;;4.07;2.93;;;;;;;;;;5024245;28;20642;-66
2023/05/01 06:23:45;;;;;;;3.50;3.00;;;;;;;;;;5018122;28;20538;-65
2023/05/01 06:26:11;;;;;;;8.73;4.23;;;;;;;;;;5022170;28;20186;-68
2023/05/01 06:28:37;;;;;;;6.73;4.60;;;;;;;;;;5023228;28;20200;-66
2023/05/01 06:31:04;;;;;;;8.77;4.70;;;;;;;;;;5022090;28;20223;-65
2023/05/01 06:33:30;;;;;;;7.80;4.30;;;;;;;;;;5019302;28;20184;-68
2023/05/01 06:35:58;;;;;;;5.33;3.77;;;;;;;;;;5015509;28;20211;-66
2023/05/01 06:38:24;;;;;;;7.10;3.70;;;;;;;;;;5015264;28;20299;-66
2023/05/01 06:40:50;;;;;;;4.87;4.30;;;;;;;;;;5015115;28;20191;-66
2023/05/01 06:43:16;;;;;;;4.50;3.40;;;;;;;;;;4997420;28;20179;-67
2023/05/01 06:45:42;;;;;;;7.87;3.97;;;;;;;;;;5015434;28;20179;-67
2023/05/01 06:48:08;;;;;;;5.27;3.10;;;;;;;;;;5020456;23;20223;-70
2023/05/01 06:50:34;;;;;;;5.37;3.50;;;;;;;;;;5015288;28;20180;-70
2023/05/01 06:53:01;;;;;;;5.87;3.17;;;;;;;;;;4997441;28;20749;-70
2023/05/01 06:55:30;;;;;;;6.97;3.47;;;;;;;;;;4997342;28;20283;-71
2023/05/01 06:57:56;;;;;;;4.43;3.60;;;;;;;;;;4997387;28;20634;-69
2023/05/01 07:00:22;;;;;;;5.43;3.40;;;;;;;;;;4997172;28;20267;-71
2023/05/01 07:02:48;;;;;;;7.50;3.53;;;;;;;;;;5014582;28;20658;-69
2023/05/01 07:05:14;;;;;;;3.97;3.33;;;;;;;;;;4997027;28;20193;-69
2023/05/01 07:07:40;;;;;;;7.07;3.43;;;;;;;;;;5014519;28;20200;-69
2023/05/01 07:10:06;;;;;;;7.47;3.20;;;;;;;;;;5014983;28;20212;-70
2023/05/01 07:12:32;;;;;;;7.70;3.73;;;;;;;;;;4996767;28;20191;-69
2023/05/01 07:14:58;;;;;;;7.80;3.23;;;;;;;;;;5015404;28;20176;-70
2023/05/01 07:17:25;;;;;;;5.33;3.87;;;;;;;;;;5015209;28;20203;-69
2023/05/01 07:19:51;;;;;;;4.77;3.47;;;;;;;;;;4997183;28;20600;-70
2023/05/01 07:22:17;;;;;;;5.10;3.17;;;;;;;;;;5016229;28;20180;-72
2023/05/01 07:24:43;;;;;;;7.23;3.33;;;;;;;;;;5016483;28;20657;-72
2023/05/01 07:27:09;;;;;;;4.20;3.00;;;;;;;;;;4997685;28;20200;-70
2023/05/01 07:29:35;;;;;;;4.83;3.10;;;;;;;;;;5015119;28;20597;-70
2023/05/01 07:32:01;;;;;;;4.50;3.20;;;;;;;;;;4996910;28;20602;-70
2023/05/01 07:34:27;;;;;;;7.97;4.90;;;;;;;;;;5017874;28;20184;-70
2023/05/01 07:36:53;;;;;;;3.50;3.20;;;;;;;;;;5014836;28;20596;-70
2023/05/01 07:39:19;;;;;;;4.33;3.03;;;;;;;;;;5014251;28;20180;-70
2023/05/01 07:41:45;;;;;;;3.40;2.80;;;;;;;;;;4996667;28;20245;-70
2023/05/01 07:44:11;;;;;;;9.80;3.70;;;;;;;;;;5014107;28;20176;-70
2023/05/01 07:46:38;;;;;;;4.37;3.00;;;;;;;;;;5014170;28;20207;-70
2023/05/01 07:49:04;;;;;;;5.77;3.03;;;;;;;;;;5013915;28;20205;-70
2023/05/01 07:51:30;;;;;;;7.07;3.80;;;;;;;;;;5014273;28;20190;-70
2023/05/01 07:53:56;;;;;;;3.60;2.93;;;;;;;;;;4996229;28;20184;-70
2023/05/01 07:56:22;;;;;;;5.67;2.80;;;;;;;;;;5013781;28;20606;-71
2023/05/01 07:58:48;;;;;;;5.97;3.57;;;;;;;;;;5013805;28;20757;-71
2023/05/01 08:01:14;;;;;;;5.43;3.60;;;;;;;;;;5013710;28;20230;-70
2023/05/01 08:03:40;;;;;;;9.20;3.93;;;;;;;;;;4996065;28;20176;-70
2023/05/01 08:06:06;;;;;;;10.23;4.70;;;;;;;;;;5014030;28;20183;-71
2023/05/01 08:08:32;;;;;;;6.50;4.00;;;;;;;;;;5013495;28;20195;-71
2023/05/01 08:10:58;;;;;;;6.43;4.80;;;;;;;;;;5014164;28;20179;-70
2023/05/01 08:13:24;;;;;;;6.77;3.87;;;;;;;;;;5013506;28;20661;-71
2023/05/01 08:15:51;;;;;;;7.97;4.80;;;;;;;;;;5013720;28;20196;-71
2023/05/01 08:18:20;;;;;;;9.87;4.50;;;;;;;;;;4995712;28;20223;-71
2023/05/01 08:20:49;;;;;;;7.40;4.13;;;;;;;;;;5013445;28;20202;-71
2023/05/01 08:23:16;;;;;;;8.50;5.13;;;;;;;;;;4995598;28;20188;-70
2023/05/01 08:25:42;;;;;;;10.37;5.30;;;;;;;;;;5013330;28;20180;-69
2023/05/01 08:28:08;;;;;;;10.90;5.30;;;;;;;;;;5013303;28;20205;-70
2023/05/01 08:30:34;;;;;;;7.97;4.23;;;;;;;;;;5013553;28;20313;-70
2023/05/01 08:33:00;;;;;;;6.17;3.63;;;;;;;;;;5015274;28;20612;-71
2023/05/01 08:35:26;;;;;;;7.93;5.23;;;;;;;;;;5017323;28;20206;-70
2023/05/01 08:37:51;;;;;;;11.03;5.87;;;;;;;;;;5017324;28;20694;-70
2023/05/01 08:40:17;;;;;;;13.00;7.17;;;;;;;;;;5017747;28;20180;-70
2023/05/01 08:42:44;;;;;;;12.43;5.83;;;;;;;;;;4999580;28;20208;-71
2023/05/01 08:45:10;;;;;;;6.37;4.30;;;;;;;;;;4999615;28;20690;-71
2023/05/01 08:47:37;;;;;;;9.30;4.27;;;;;;;;;;5017187;28;20243;-71
2023/05/01 08:50:03;;;;;;;6.03;3.47;;;;;;;;;;4999527;28;20186;-70
2023/05/01 08:52:31;;;;;;;4.83;3.30;;;;;;;;;;4999475;28;20275;-70
2023/05/01 08:55:00;;;;;;;6.77;3.77;;;;;;;;;;5016927;28;20183;-70
2023/05/01 08:57:26;;;;;;;5.63;4.53;;;;;;;;;;5017210;28;20188;-72
2023/05/01 08:59:53;;;;;;;7.40;5.13;;;;;;;;;;5017011;28;20176;-70
2023/05/01 09:02:19;;;;;;;7.87;4.73;;;;;;;;;;4999323;28;20211;-70
2023/05/01 09:04:46;;;;;;;5.63;4.00;;;;;;;;;;5016938;28;20187;-70
2023/05/01 09:07:12;;;;;;;4.60;3.40;;;;;;;;;;4999111;28;20206;-71
2023/05/01 09:09:38;;;;;;;6.57;3.73;;;;;;;;;;5016783;28;20642;-70
2023/05/01 09:12:11;;;;;;;6.10;3.67;;;;;;;;;;5016688;28;20238;-70
2023/05/01 09:14:37;;;;;;;5.50;3.90;;;;;;;;;;5016773;28;20226;-71
2023/05/01 09:17:03;;;;;;;5.33;4.00;;;;;;;;;;5016712;28;20216;-71
2023/05/01 09:19:29;;;;;;;7.10;3.77;;;;;;;;;;5016957;28;20631;-70
2023/05/01 09:21:55;;;;;;;7.47;3.80;;;;;;;;;;5016859;28;20187;-71
2023/05/01 09:24:24;;;;;;;5.93;3.83;;;;;;;;;;5016501;28;20638;-71
2023/05/01 09:26:51;;;;;;;5.17;4.10;;;;;;;;;;4998660;28;20720;-71
2023/05/01 09:29:35;;;;;;;5.17;3.97;;;;;;;;;;5016300;28;20187;-71
2023/05/01 09:32:12;;;;;;;4.67;3.83;;;;;;;;;;5016721;28;20203;-72
2023/05/01 09:34:38;;;;;;;5.70;4.40;;;;;;;;;;5016692;28;20615;-71
2023/05/01 09:37:04;;;;;;;4.50;3.80;;;;;;;;;;4998372;28;20223;-71
2023/05/01 09:39:30;;;;;;;8.23;4.63;;;;;;;;;;5015984;28;20176;-70
2023/05/01 09:41:56;;;;;;;7.37;4.40;;;;;;;;;;4998323;28;20218;-70
2023/05/01 09:44:22;;;;;;;8.13;4.33;;;;;;;;;;5015393;28;20226;-70
2023/05/01 09:46:48;;;;;;;5.07;4.47;;;;;;;;;;5016107;28;20207;-70
2023/05/01 09:49:15;;;;;;;5.20;4.17;;;;;;;;;;5016168;28;20184;-72
2023/05/01 09:51:42;;;;;;;5.83;4.70;;;;;;;;;;5015861;28;20556;-69
2023/05/01 09:54:17;;;;;;;6.00;4.80;;;;;;;;;;4998157;28;20184;-70
2023/05/01 09:56:47;;;;;;;7.87;5.37;;;;;;;;;;5016167;28;20226;-70
2023/05/01 09:59:21;;;;;;;7.27;6.07;;;;;;;;;;5015725;28;20638;-72
2023/05/01 10:01:48;;;;;;;8.10;4.83;;;;;;;;;;5015925;28;20256;-72
2023/05/01 10:04:14;;;;;;;5.80;4.80;;;;;;;;;;5016132;28;20176;-71
2023/05/01 10:06:40;;;;;;;6.13;4.80;;;;;;;;;;5015667;28;20183;-72
2023/05/01 10:09:15;;;;;;;7.10;5.20;;;;;;;;;;5015677;28;20176;-72
2023/05/01 10:11:51;;;;;;;6.53;4.57;;;;;;;;;;5015771;28;20170;-71
2023/05/01 10:14:17;;;;;;;5.57;4.97;;;;;;;;;;4997745;28;20539;-71
2023/05/01 10:16:44;;;;;;;5.43;4.77;;;;;;;;;;5015603;28;20616;-73
2023/05/01 10:19:11;;;;;;;5.30;4.23;;;;;;;;;;4997701;28;20184;-72
2023/05/01 10:21:37;;;;;;;6.20;4.83;;;;;;;;;;5015485;28;20598;-72
2023/05/01 10:24:04;;;;;;;5.30;4.40;;;;;;;;;;4997542;28;20222;-72
2023/05/01 10:26:30;;;;;;;7.67;4.67;;;;;;;;;;5015195;28;20179;-71
2023/05/01 10:28:58;;;;;;;5.27;4.37;;;;;;;;;;5015249;28;20646;-71
2023/05/01 10:31:25;;;;;;;7.63;4.17;;;;;;;;;;5015851;28;20183;-71
2023/05/01 10:33:51;;;;;;;5.33;3.80;;;;;;;;;;5015794;28;20233;-71
2023/05/01 10:36:22;;;;;;;4.90;4.03;;;;;;;;;;5015264;28;20207;-71
2023/05/01 10:38:48;;;;;;;4.80;3.23;;;;;;;;;;5015180;28;20200;-71
2023/05/01 10:41:15;;;;;;;4.63;3.50;;;;;;;;;;5015138;28;20183;-71
2023/05/01 10:43:42;;;;;;;4.20;3.77;;;;;;;;;;5015097;28;20172;-72
2023/05/01 10:46:08;;;;;;;4.20;3.37;;;;;;;;;;5015670;28;20509;-71
2023/05/01 10:48:37;;;;;;;3.83;3.03;;;;;;;;;;4997385;28;20277;-71
2023/05/01 10:51:13;;;;;;;5.07;2.87;;;;;;;;;;5015052;28;20214;-71
2023/05/01 10:53:39;;;;;;;3.93;3.37;;;;;;;;;;5014915;28;20663;-72
2023/05/01 10:56:05;;;;;;;4.30;3.90;;;;;;;;;;5014052;28;20214;-71
2023/05/01 10:58:37;;;;;;;4.00;3.53;;;;;;;;;;5014861;28;20203;-70
2023/05/01 11:01:23;;;;;;;5.20;3.37;;;;;;;;;;5014729;28;20184;-70
2023/05/01 11:03:51;;;;;;;3.73;3.40;;;;;;;;;;4997984;28;20192;-72
2023/05/01 11:06:17;;;;;;;4.47;3.00;;;;;;;;;;4997273;28;20180;-72
2023/05/01 11:08:44;;;;;;;3.63;3.27;;;;;;;;;;5014621;28;20207;-71
2023/05/01 11:11:20;;;;;;;4.87;3.40;;;;;;;;;;4997013;28;20279;-70
2023/05/01 11:14:01;;;;;;;5.97;3.60;;;;;;;;;;5014506;28;20172;-70
2023/05/01 11:16:36;;;;;;;3.77;2.83;;;;;;;;;;4997052;28;20215;-72
2023/05/01 11:19:03;;;;;;;3.97;3.30;;;;;;;;;;5014612;28;20171;-71
2023/05/01 11:21:29;;;;;;;3.80;3.13;;;;;;;;;;5014546;28;20627;-72
2023/05/01 11:23:55;;;;;;;4.10;2.80;;;;;;;;;;5014760;28;20198;-72
2023/05/01 11:26:22;;;;;;;3.27;2.97;;;;;;;;;;4996628;28;20211;-71
2023/05/01 11:28:51;;;;;;;2.93;2.53;;;;;;;;;;5013964;28;20192;-71
2023/05/01 11:31:17;;;;;;;2.87;2.30;;;;;;;;;;4996269;28;20199;-71
2023/05/01 11:33:43;;;;;;;2.83;2.40;;;;;;;;;;5014068;28;20536;-71
2023/05/01 11:36:09;;;;;;;3.63;2.47;;;;;;;;;;4996288;28;20341;-70
2023/05/01 11:38:35;;;;;;;2.43;2.20;;;;;;;;;;4996318;28;20200;-71
2023/05/01 11:41:03;;;;;;;4.20;2.10;;;;;;;;;;5014560;28;20539;-71
2023/05/01 11:43:29;;;;;;;3.63;2.50;;;;;;;;;;5014111;28;20195;-71
2023/05/01 11:46:00;;;;;;;3.70;2.50;;;;;;;;;;5013752;28;20184;-71
2023/05/01 11:48:27;;;;;;;3.30;2.23;;;;;;;;;;4996110;28;20226;-71
2023/05/01 11:50:53;;;;;;;3.50;2.27;;;;;;;;;;4996596;28;20559;-71
2023/05/01 11:53:19;;;;;;;3.23;2.30;;;;;;;;;;4996094;28;20258;-71
2023/05/01 11:55:45;;;;;;;4.63;2.70;;;;;;;;;;5013626;28;20207;-71
2023/05/01 11:58:12;;;;;;;3.20;2.90;;;;;;;;;;5013858;28;20614;-71
2023/05/01 12:00:39;;;;;;;4.37;2.67;;;;;;;;;;4995969;28;20180;-70
2023/05/01 12:03:09;;;;;;;2.40;2.20;;;;;;;;;;5013699;28;20187;-70
2023/05/01 12:05:38;;;;;;;3.27;2.53;;;;;;;;;;5013550;28;20220;-71
2023/05/01 12:08:08;;;;;;;3.47;2.70;;;;;;;;;;5013148;28;20200;-70
2023/05/01 12:10:34;;;;;;;4.10;2.73;;;;;;;;;;5013838;28;20176;-71
2023/05/01 12:13:01;;;;;;;3.53;2.90;;;;;;;;;;5013293;28;20211;-71
2023/05/01 12:15:27;;;;;;;2.20;2.10;;;;;;;;;;4995631;28;20211;-70
2023/05/01 12:17:53;;;;;;;2.73;2.40;;;;;;;;;;4995766;28;20195;-70
2023/05/01 12:20:33;;;;;;;2.83;2.10;;;;;;;;;;5013658;28;20714;-71
2023/05/01 12:22:59;;;;;;;3.33;2.20;;;;;;;;;;4995722;28;20214;-71
2023/05/01 12:25:33;;;;;;;2.90;2.40;;;;;;;;;;5013810;28;20698;-71
2023/05/01 12:28:00;;;;;;;3.60;2.37;;;;;;;;;;5013398;28;20196;-70
2023/05/01 12:30:26;;;;;;;4.07;2.83;;;;;;;;;;5013778;28;20190;-70
2023/05/01 12:32:52;;;;;;;3.90;3.07;;;;;;;;;;5013464;28;20279;-70
2023/05/01 12:35:18;;;;;;;2.50;2.30;;;;;;;;;;5013029;28;20176;-70
2023/05/01 12:37:45;;;;;;;3.90;3.33;;;;;;;;;;5013379;28;20214;-70
2023/05/01 12:40:13;;;;;;;4.03;2.53;;;;;;;;;;5013044;28;20199;-70
2023/05/01 12:42:39;;;;;;;4.20;2.10;;;;;;;;;;4995238;28;20180;-70
2023/05/01 12:45:05;;;;;;;3.43;2.20;;;;;;;;;;5012996;28;20180;-70
2023/05/01 12:47:38;;;;;;;12.03;8.77;;;;;;;;;;4995412;28;20223;-70
2023/05/01 12:50:04;;;;;;;3.53;2.80;;;;;;;;;;5013168;28;20187;-71
2023/05/01 12:52:31;;;;;;;102.10;58.03;;;;;;;;;;5013259;28;20658;-72
2023/05/01 12:55:05;;;;;;;61.83;35.30;;;;;;;;;;5013468;28;20176;-71
2023/05/01 12:57:31;;;;;;;6.63;4.90;;;;;;;;;;5012980;28;20200;-71
2023/05/01 13:00:01;;;;;;;3.40;3.07;;;;;;;;;;5013244;28;20183;-71
2023/05/01 13:02:31;;;;;;;4.07;2.87;;;;;;;;;;5013166;28;20172;-71
2023/05/01 13:05:06;;;;;;;3.63;2.40;;;;;;;;;;4995439;28;20268;-72
2023/05/01 13:07:32;;;;;;;2.93;2.43;;;;;;;;;;5013213;28;20191;-72
2023/05/01 13:09:59;;;;;;;3.30;2.43;;;;;;;;;;4995368;28;20177;-73
2023/05/01 13:12:26;;;;;;;3.43;3.13;;;;;;;;;;5012839;28;20179;-72
2023/05/01 13:14:52;;;;;;;4.97;3.00;;;;;;;;;;4995339;28;20204;-71
2023/05/01 13:17:25;;;;;;;3.60;2.83;;;;;;;;;;5012859;28;20234;-71
2023/05/01 13:19:54;;;;;;;5.03;4.50;;;;;;;;;;4998424;28;20184;-70
2023/05/01 13:22:28;;;;;;;4.80;3.00;;;;;;;;;;5022987;23;20231;-68
2023/05/01 13:24:54;;;;;;;4.70;2.93;;;;;;;;;;4999599;28;20693;-69
2023/05/01 13:27:22;;;;;;;4.33;3.17;;;;;;;;;;5016828;28;20176;-69
2023/05/01 13:29:56;;;;;;;3.53;3.20;;;;;;;;;;5017890;28;20172;-70
2023/05/01 13:32:22;;;;;;;3.90;2.40;;;;;;;;;;5017003;28;20575;-69
2023/05/01 13:34:48;;;;;;;4.23;2.70;;;;;;;;;;5017047;28;20182;-70
2023/05/01 13:37:15;;;;;;;2.77;2.57;;;;;;;;;;5017296;28;20238;-70
2023/05/01 13:39:47;;;;;;;4.77;3.13;;;;;;;;;;5016947;28;20234;-70
2023/05/01 13:42:22;;;;;;;3.63;3.00;;;;;;;;;;5016952;28;20219;-70
2023/05/01 13:44:52;;;;;;;2.53;2.33;;;;;;;;;;5017748;28;20156;-68
2023/05/01 13:47:18;;;;;;;2.57;2.37;;;;;;;;;;4999260;28;20186;-68
2023/05/01 13:49:45;;;;;;;2.87;2.60;;;;;;;;;;5017140;28;20187;-68
2023/05/01 13:52:11;;;;;;;9.03;3.23;;;;;;;;;;5016946;28;20196;-68
2023/05/01 13:54:40;;;;;;;3.97;3.53;;;;;;;;;;4999175;28;20188;-68
2023/05/01 13:57:07;;;;;;;4.40;2.73;;;;;;;;;;5016529;28;20214;-68
2023/05/01 13:59:38;;;;;;;3.63;2.73;;;;;;;;;;5015817;28;20183;-68
2023/05/01 14:02:12;;;;;;;3.20;2.90;;;;;;;;;;4998047;28;20192;-68
2023/05/01 14:04:40;;;;;;;2.33;2.10;;;;;;;;;;5016259;28;20159;-68
2023/05/01 14:07:05;;;;;;;3.13;2.20;;;;;;;;;;4998193;28;20179;-68
2023/05/01 14:09:35;;;;;;;3.37;2.10;;;;;;;;;;4998120;28;20571;-68
2023/05/01 14:12:01;;;;;;;3.73;3.37;;;;;;;;;;4998132;28;20246;-68
2023/05/01 14:14:27;;;;;;;9.40;8.50;;;;;;;;;;4998289;28;20183;-68
2023/05/01 14:16:53;;;;;;;3.73;3.43;;;;;;;;;;5015724;28;20207;-66
2023/05/01 14:19:19;;;;;;;4.80;2.73;;;;;;;;;;4997926;28;20592;-66
2023/05/01 14:21:45;;;;;;;5.50;4.90;;;;;;;;;;5015444;28;20180;-66
2023/05/01 14:24:12;;;;;;;8.00;6.67;;;;;;;;;;4997811;28;20175;-66
2023/05/01 14:26:41;;;;;;;6.73;6.07;;;;;;;;;;4998478;28;20251;-66
2023/05/01 14:29:12;;;;;;;6.77;5.67;;;;;;;;;;4997810;28;20180;-66
2023/05/01 14:31:39;;;;;;;5.60;5.03;;;;;;;;;;4997770;28;20180;-66
2023/05/01 14:34:05;;;;;;;5.80;4.90;;;;;;;;;;4998104;28;20241;-66
2023/05/01 14:36:31;;;;;;;8.43;5.73;;;;;;;;;;5015171;28;20736;-66
2023/05/01 14:38:58;;;;;;;7.30;5.23;;;;;;;;;;4997477;28;20183;-66
2023/05/01 14:41:24;;;;;;;6.47;5.87;;;;;;;;;;5015466;28;20172;-66